Time;durP1;ratioP1;P1;durP2;ratioP2;P2;SDS_P1;SDS_P2;PMS_P1;PMS_P2;Temp;Humidity;BMP_temperature;BMP_pressure;BME280_temperature;BME280_humidity;BME280_pressure;Samples;Min_cycle;Max_cycle;Signal;HPM_P1;HPM_P2
2023/09/06 00:01:39;;;;;;;15.77;12.80;;;;;;;19.67;100.00;100458.78;5106174;28;20031;-29
2023/09/06 00:04:05;;;;;;;13.98;12.57;;;;;;;19.62;100.00;100449.88;5105974;28;20101;-29
2023/09/06 00:06:31;;;;;;;15.20;12.43;;;;;;;19.87;100.00;100459.91;5106010;28;20039;-29
2023/09/06 00:08:56;;;;;;;16.52;12.82;;;;;;;19.90;100.00;100451.25;5105893;28;20054;-29
2023/09/06 00:11:22;;;;;;;16.20;12.88;;;;;;;20.11;100.00;100441.22;5105829;28;20054;-28
2023/09/06 00:13:47;;;;;;;15.10;13.20;;;;;;;19.86;100.00;100433.94;5105734;28;20034;-29
2023/09/06 00:16:39;;;;;;;16.67;13.32;;;;;;;19.98;100.00;100437.16;5105785;28;20026;-30
2023/09/06 00:19:04;;;;;;;17.20;14.63;;;;;;;19.75;100.00;100427.69;5102361;28;20031;-29
2023/09/06 00:21:43;;;;;;;16.60;14.75;;;;;;;19.51;100.00;100432.78;5105774;28;20019;-29
2023/09/06 00:24:12;;;;;;;17.00;13.73;;;;;;;19.52;100.00;100433.63;5105544;28;20042;-29
2023/09/06 00:27:04;;;;;;;15.27;13.38;;;;;;;19.22;100.00;100430.59;5105529;27;20070;-29
2023/09/06 00:29:32;;;;;;;14.10;12.50;;;;;;;19.39;100.00;100429.53;5102654;28;20110;-29
2023/09/06 00:32:03;;;;;;;14.25;12.85;;;;;;;19.37;100.00;100429.00;5105616;28;20031;-30
2023/09/06 00:34:31;;;;;;;14.45;12.95;;;;;;;19.26;100.00;100428.97;5105561;28;20470;-29
2023/09/06 00:36:56;;;;;;;14.60;13.10;;;;;;;19.33;100.00;100419.78;5105548;28;20058;-29
2023/09/06 00:39:32;;;;;;;15.30;13.32;;;;;;;19.36;100.00;100425.47;5103981;28;20055;-29
2023/09/06 00:42:00;;;;;;;16.17;13.02;;;;;;;19.41;100.00;100424.66;5105964;28;20106;-28
2023/09/06 00:44:28;;;;;;;14.82;13.18;;;;;;;19.35;100.00;100418.47;5105148;28;20080;-30
2023/09/06 00:46:54;;;;;;;14.20;12.55;;;;;;;19.41;100.00;100416.56;5109345;28;20016;-29
2023/09/06 00:49:19;;;;;;;13.63;12.18;;;;;;;19.47;100.00;100421.72;5109505;28;20047;-31
2023/09/06 00:51:45;;;;;;;13.88;12.15;;;;;;;19.48;100.00;100427.94;5109139;28;20035;-30
2023/09/06 00:54:10;;;;;;;14.05;12.02;;;;;;;19.53;100.00;100430.63;5109749;28;20551;-28
2023/09/06 00:56:40;;;;;;;13.32;12.02;;;;;;;19.53;100.00;100425.22;5109515;28;20106;-29
2023/09/06 00:59:05;;;;;;;18.80;12.57;;;;;;;19.53;100.00;100424.41;5109686;28;20024;-29
2023/09/06 01:01:33;;;;;;;13.63;12.23;;;;;;;19.49;100.00;100418.72;5109327;28;20430;-29
2023/09/06 01:03:59;;;;;;;15.75;12.45;;;;;;;19.37;100.00;100412.75;5109131;28;20034;-29
2023/09/06 01:06:28;;;;;;;14.93;13.40;;;;;;;19.37;100.00;100410.06;5110037;28;20027;-31
2023/09/06 01:09:02;;;;;;;14.85;13.25;;;;;;;19.30;100.00;100399.50;5108943;28;20032;-29
2023/09/06 01:11:28;;;;;;;13.95;12.30;;;;;;;19.41;100.00;100405.72;5109318;28;20079;-28
2023/09/06 01:13:58;;;;;;;13.77;12.13;;;;;;;19.47;100.00;100407.38;5108942;28;20412;-29
2023/09/06 01:16:30;;;;;;;17.35;12.60;;;;;;;19.18;100.00;100398.97;5109232;28;20423;-30
2023/09/06 01:18:59;;;;;;;15.32;12.98;;;;;;;19.19;100.00;100404.09;5108660;28;20027;-30
2023/09/06 01:21:33;;;;;;;15.63;13.13;;;;;;;19.16;100.00;100399.22;5108989;28;20091;-31
2023/09/06 01:23:59;;;;;;;16.20;13.27;;;;;;;19.26;100.00;100410.03;5109060;28;20038;-29
2023/09/06 01:26:26;;;;;;;16.30;14.50;;;;;;;19.25;100.00;100419.25;5109006;28;20038;-31
2023/09/06 01:28:51;;;;;;;16.20;13.75;;;;;;;19.14;100.00;100405.97;5108838;28;20027;-32
2023/09/06 01:31:17;;;;;;;17.10;14.27;;;;;;;19.11;100.00;100410.03;5108979;28;20061;-29
2023/09/06 01:33:43;;;;;;;16.25;13.73;;;;;;;19.11;100.00;100401.13;5108664;28;20420;-30
2023/09/06 01:36:17;;;;;;;15.10;13.30;;;;;;;19.16;100.00;100399.22;5108951;28;20028;-30
2023/09/06 01:38:43;;;;;;;16.73;13.57;;;;;;;19.15;100.00;100408.41;5108873;28;20016;-29
2023/09/06 01:41:22;;;;;;;15.43;13.93;;;;;;;19.09;100.00;100390.56;5108362;28;20035;-31
2023/09/06 01:43:50;;;;;;;16.25;13.73;;;;;;;19.25;100.00;100397.63;5109253;28;20062;-30
2023/09/06 01:46:15;;;;;;;15.82;14.13;;;;;;;19.18;100.00;100394.34;5102125;28;20035;-28
2023/09/06 01:48:41;;;;;;;15.75;14.02;;;;;;;19.28;100.00;100397.06;5108442;28;20097;-29
2023/09/06 01:51:08;;;;;;;15.93;14.23;;;;;;;19.02;100.00;100377.31;5107702;28;20052;-29
2023/09/06 01:54:12;;;;;;;15.77;14.05;;;;;;;19.21;100.00;100396.53;5107708;28;20549;-29
2023/09/06 01:56:37;;;;;;;18.13;14.10;;;;;;;19.26;100.00;100388.41;5023749;28;20033;-28
2023/09/06 01:59:18;;;;;;;16.88;14.55;;;;;;;19.23;100.00;100396.28;5024017;28;20037;-30
2023/09/06 02:01:43;;;;;;;16.30;14.30;;;;;;;19.21;100.00;100396.53;5070719;28;20095;-28
2023/09/06 02:04:24;;;;;;;15.82;14.23;;;;;;;19.24;100.00;100401.38;5107387;28;20035;-29
2023/09/06 02:06:58;;;;;;;16.95;14.75;;;;;;;19.24;100.00;100397.88;5107927;28;20030;-30
2023/09/06 02:09:23;;;;;;;15.93;14.18;;;;;;;19.29;100.00;100392.50;5107060;28;20024;-29
2023/09/06 02:11:50;;;;;;;16.40;13.85;;;;;;;19.16;100.00;100388.41;5107218;28;20420;-29
2023/09/06 02:14:15;;;;;;;18.17;14.68;;;;;;;19.24;100.00;100409.50;5107202;28;20027;-29
2023/09/06 02:16:41;;;;;;;17.83;15.32;;;;;;;19.15;100.00;100405.72;5106750;28;20030;-28
2023/09/06 02:19:06;;;;;;;17.45;14.02;;;;;;;19.23;100.00;100394.38;5106837;28;20023;-29
2023/09/06 02:21:53;;;;;;;17.95;14.43;;;;;;;19.23;100.00;100397.06;5106796;28;20020;-29
2023/09/06 02:24:18;;;;;;;16.50;14.83;;;;;;;19.22;100.00;100392.75;5106858;28;20024;-28
2023/09/06 02:26:44;;;;;;;18.08;14.77;;;;;;;19.15;100.00;100391.41;5106868;28;20424;-29
2023/09/06 02:29:18;;;;;;;20.65;16.13;;;;;;;19.03;100.00;100386.22;5106749;28;20037;-30
2023/09/06 02:31:45;;;;;;;18.70;16.83;;;;;;;18.97;100.00;100385.41;5106440;28;20837;-28
2023/09/06 02:34:10;;;;;;;20.80;16.92;;;;;;;18.93;100.00;100388.91;5106958;28;20795;-29
2023/09/06 02:36:36;;;;;;;18.95;17.08;;;;;;;19.04;100.00;100394.09;5106580;28;20020;-28
2023/09/06 02:39:01;;;;;;;18.60;16.50;;;;;;;18.94;100.00;100391.34;5106549;28;20043;-29
2023/09/06 02:41:52;;;;;;;18.15;16.17;;;;;;;18.92;100.00;100400.78;5106418;28;20047;-29
2023/09/06 02:44:17;;;;;;;19.58;16.85;;;;;;;19.00;100.00;100402.97;5105726;28;20039;-29
2023/09/06 02:46:53;;;;;;;19.17;17.05;;;;;;;19.15;100.00;100403.00;5106476;28;20463;-30
2023/09/06 02:49:18;;;;;;;18.30;15.32;;;;;;;19.07;100.00;100406.25;5106440;28;20027;-29
2023/09/06 02:51:53;;;;;;;18.08;16.27;;;;;;;19.21;100.00;100412.75;5065272;28;1175203;-30
2023/09/06 02:54:18;;;;;;;18.67;16.15;;;;;;;19.31;100.00;100421.94;5107589;28;20051;-29
2023/09/06 02:56:45;;;;;;;17.92;16.08;;;;;;;19.22;100.00;100408.97;5107537;28;20034;-31
2023/09/06 02:59:14;;;;;;;17.98;16.15;;;;;;;19.27;100.00;100405.47;5106903;28;20035;-31
2023/09/06 03:02:05;;;;;;;18.35;16.45;;;;;;;19.22;100.00;100403.56;5106940;28;20023;-31
2023/09/06 03:04:37;;;;;;;19.38;16.45;;;;;;;19.14;100.00;100395.97;5107227;28;20054;-28
2023/09/06 03:07:09;;;;;;;18.02;16.02;;;;;;;19.24;100.00;100395.19;5106535;28;20636;-28
2023/09/06 03:09:40;;;;;;;21.77;18.77;;;;;;;19.21;100.00;100393.84;5106464;28;20059;-29
2023/09/06 03:12:11;;;;;;;23.90;18.48;;;;;;;19.26;100.00;100393.03;5107175;28;20073;-28
2023/09/06 03:14:48;;;;;;;21.15;18.13;;;;;;;19.26;100.00;100395.72;5106798;28;20024;-28
2023/09/06 03:17:18;;;;;;;20.55;18.02;;;;;;;19.11;100.00;100388.41;5106990;28;20023;-28
2023/09/06 03:19:47;;;;;;;19.80;17.70;;;;;;;19.22;100.00;100400.84;5106694;28;20500;-28
2023/09/06 03:22:13;;;;;;;20.55;17.65;;;;;;;19.12;100.00;100400.84;5106983;28;20042;-30
2023/09/06 03:24:40;;;;;;;22.58;17.70;;;;;;;19.09;100.00;100406.78;5106951;28;20035;-28
2023/09/06 03:27:10;;;;;;;22.25;18.33;;;;;;;19.18;100.00;100407.88;5106737;28;20027;-29
2023/09/06 03:29:38;;;;;;;19.30;16.83;;;;;;;19.22;100.00;100414.38;5106936;28;20020;-30
2023/09/06 03:32:34;;;;;;;21.17;16.02;;;;;;;19.24;100.00;100422.22;5106726;28;20035;-28
2023/09/06 03:35:00;;;;;;;18.60;16.70;;;;;;;19.21;100.00;100418.16;5106707;28;20024;-29
2023/09/06 03:38:10;;;;;;;18.10;16.15;;;;;;;19.34;100.00;100432.25;5106532;28;20165;-30
2023/09/06 03:40:36;;;;;;;17.65;15.77;;;;;;;19.27;100.00;100427.91;5022989;28;20113;-30
2023/09/06 03:43:09;;;;;;;17.85;15.95;;;;;;;19.45;100.00;100434.69;5094204;28;20487;-31
2023/09/06 03:45:36;;;;;;;18.13;16.23;;;;;;;19.43;100.00;100427.91;5106292;28;20051;-31
2023/09/06 03:48:31;;;;;;;19.37;16.43;;;;;;;19.49;100.00;100437.66;5106314;28;20110;-27
2023/09/06 03:50:59;;;;;;;17.83;16.02;;;;;;;19.17;100.00;100427.88;5088468;28;20122;-29
2023/09/06 03:53:26;;;;;;;17.38;15.55;;;;;;;19.33;100.00;100436.00;5106197;28;20810;-30
2023/09/06 03:55:57;;;;;;;21.02;16.70;;;;;;;19.23;100.00;100434.94;5106513;28;20500;-31
2023/09/06 03:58:53;;;;;;;18.15;16.13;;;;;;;19.52;100.00;100447.97;5106539;28;20043;-32
2023/09/06 04:01:19;;;;;;;17.38;15.57;;;;;;;19.60;100.00;100446.63;5106443;28;20052;-30
2023/09/06 04:03:50;;;;;;;16.90;15.30;;;;;;;19.56;100.00;100451.75;5105708;28;20028;-30
2023/09/06 04:06:16;;;;;;;17.10;15.30;;;;;;;19.61;100.00;100459.84;5106064;28;20039;-29
2023/09/06 04:08:42;;;;;;;16.30;14.60;;;;;;;19.63;100.00;100459.59;5106219;28;20720;-29
2023/09/06 04:11:36;;;;;;;20.65;16.27;;;;;;;19.50;100.00;100452.81;5105899;28;20028;-29
2023/09/06 04:14:02;;;;;;;16.73;14.98;;;;;;;19.46;100.00;100454.44;5105818;28;20103;-29
2023/09/06 04:16:37;;;;;;;16.10;14.20;;;;;;;19.44;100.00;100451.19;5105940;28;20027;-29
2023/09/06 04:19:06;;;;;;;22.25;15.10;;;;;;;19.36;100.00;100435.50;5105768;28;20393;-28
2023/09/06 04:21:40;;;;;;;17.75;14.70;;;;;;;19.44;100.00;100437.66;5106075;28;20057;-31
2023/09/06 04:24:08;;;;;;;17.75;15.85;;;;;;;19.44;100.00;100434.97;5105812;28;20019;-29
2023/09/06 04:26:42;;;;;;;16.55;14.68;;;;;;;19.44;100.00;100437.66;5106075;28;20041;-32
2023/09/06 04:29:07;;;;;;;20.73;14.23;;;;;;;19.51;100.00;100440.91;5105339;28;20040;-30
2023/09/06 04:31:44;;;;;;;19.10;14.25;;;;;;;19.53;100.00;100446.06;5105933;28;20031;-31
2023/09/06 04:34:11;;;;;;;17.17;14.55;;;;;;;19.60;100.00;100444.72;5105598;28;20024;-29
2023/09/06 04:36:43;;;;;;;19.35;14.50;;;;;;;19.63;100.00;100457.69;5104696;28;20504;-29
2023/09/06 04:39:08;;;;;;;16.30;13.82;;;;;;;19.67;100.00;100455.25;5105363;28;20024;-30
2023/09/06 04:41:46;;;;;;;14.35;12.85;;;;;;;19.74;100.00;100463.16;5105740;28;20047;-29
2023/09/06 04:44:11;;;;;;;15.18;13.68;;;;;;;19.68;100.00;100462.31;5105586;28;20023;-29
2023/09/06 04:46:36;;;;;;;15.27;13.65;;;;;;;19.61;100.00;100446.31;5104412;28;20043;-29
2023/09/06 04:49:02;;;;;;;14.70;13.20;;;;;;;19.62;100.00;100460.69;5105541;28;20492;-29
2023/09/06 04:51:49;;;;;;;16.08;13.35;;;;;;;19.73;100.00;100472.34;5105416;28;20043;-29
2023/09/06 04:54:15;;;;;;;15.13;13.13;;;;;;;19.58;100.00;100465.81;5105405;28;20027;-28
2023/09/06 04:56:40;;;;;;;15.20;13.65;;;;;;;19.73;100.00;100464.22;5105619;28;20031;-28
2023/09/06 04:59:06;;;;;;;16.10;14.40;;;;;;;19.69;100.00;100466.63;5105430;28;20024;-29
2023/09/06 05:01:31;;;;;;;18.17;14.07;;;;;;;19.52;100.00;100456.06;5105465;28;20111;-31
2023/09/06 05:04:12;;;;;;;15.93;14.13;;;;;;;19.60;100.00;100460.94;5105567;28;20427;-29
2023/09/06 05:06:37;;;;;;;15.68;13.52;;;;;;;19.82;100.00;100473.44;5105107;28;20019;-29
2023/09/06 05:09:03;;;;;;;16.23;14.43;;;;;;;19.98;100.00;100466.94;5105467;28;20085;-29
2023/09/06 05:11:28;;;;;;;15.70;12.63;;;;;;;20.11;100.00;100468.28;5105332;28;20027;-29
2023/09/06 05:13:54;;;;;;;16.98;13.40;;;;;;;20.12;100.00;100463.66;5105574;28;20020;-29
2023/09/06 05:16:19;;;;;;;17.00;13.63;;;;;;;20.10;100.00;100465.84;5105505;28;20024;-29
2023/09/06 05:19:16;;;;;;;14.40;12.90;;;;;;;20.05;100.00;100467.47;5105001;28;20028;-29
2023/09/06 05:21:42;;;;;;;16.80;13.75;;;;;;;20.07;100.00;100465.31;5033558;28;20047;-29
2023/09/06 05:24:16;;;;;;;16.83;13.30;;;;;;;19.92;100.00;100478.88;5105310;28;20428;-28
2023/09/06 05:26:41;;;;;;;15.10;12.75;;;;;;;19.97;100.00;100481.56;5105109;28;20129;-29
2023/09/06 05:29:19;;;;;;;19.10;13.27;;;;;;;20.10;100.00;100487.50;5104884;28;20035;-30
2023/09/06 05:31:44;;;;;;;;;;;;;;;20.02;100.00;100486.16;5107247;28;20783;-29
2023/09/06 05:34:22;;;;;;;13.82;12.43;;;;;;;20.09;100.00;100488.59;5109183;28;19982;-30
2023/09/06 05:36:47;;;;;;;13.68;12.27;;;;;;;20.36;100.00;100491.81;5108601;28;20030;-30
2023/09/06 05:39:22;;;;;;;16.42;12.88;;;;;;;20.30;100.00;100498.31;5108981;28;20118;-30
2023/09/06 05:41:48;;;;;;;14.98;13.15;;;;;;;20.40;100.00;100503.72;5108443;28;20028;-30
2023/09/06 05:44:22;;;;;;;13.55;12.15;;;;;;;20.29;100.00;100496.69;5108508;28;20024;-29
2023/09/06 05:46:47;;;;;;;14.27;12.23;;;;;;;20.38;100.00;100508.59;5108892;28;20031;-31
2023/09/06 05:49:13;;;;;;;14.27;11.95;;;;;;;20.49;100.00;100490.41;5107821;28;20435;-29
2023/09/06 05:51:38;;;;;;;15.40;12.52;;;;;;;20.47;100.00;100498.84;5106853;28;20036;-29
2023/09/06 05:54:04;;;;;;;15.18;12.07;;;;;;;20.42;100.00;100509.66;5108381;28;20019;-30
2023/09/06 05:56:29;;;;;;;14.23;12.35;;;;;;;20.52;100.00;100516.16;5108166;28;20404;-31
2023/09/06 05:58:55;;;;;;;14.77;11.50;;;;;;;20.60;100.00;100512.94;5108875;28;20016;-30
2023/09/06 06:01:21;;;;;;;13.98;10.93;;;;;;;20.46;100.00;100513.44;5108182;28;20165;-29
2023/09/06 06:04:16;;;;;;;13.63;12.10;;;;;;;20.69;100.00;100532.94;5108291;28;20130;-29
2023/09/06 06:06:41;;;;;;;12.52;10.77;;;;;;;20.58;100.00;100526.75;5094301;28;20070;-30
2023/09/06 06:09:24;;;;;;;13.27;10.88;;;;;;;20.69;100.00;100541.06;5107829;28;20069;-30
2023/09/06 06:12:08;;;;;;;15.05;11.52;;;;;;;20.84;100.00;100546.47;5108120;28;20116;-29
2023/09/06 06:14:35;;;;;;;14.48;11.77;;;;;;;20.84;100.00;100549.19;5107915;28;20056;-31
2023/09/06 06:17:00;;;;;;;14.77;11.15;;;;;;;20.74;100.00;100551.91;5107923;28;20028;-29
2023/09/06 06:19:26;;;;;;;11.57;10.38;;;;;;;20.61;100.00;100547.06;5107441;28;20044;-29
2023/09/06 06:21:51;;;;;;;13.45;11.70;;;;;;;20.74;100.00;100551.91;5107560;28;20036;-31
2023/09/06 06:24:24;;;;;;;14.27;11.57;;;;;;;20.87;100.00;100562.16;5108273;28;20080;-29
2023/09/06 06:26:52;;;;;;;12.77;10.80;;;;;;;20.92;100.00;100563.25;5107587;28;20508;-29
2023/09/06 06:29:20;;;;;;;14.73;10.95;;;;;;;20.96;100.00;100575.97;5107933;28;20512;-29
2023/09/06 06:31:55;;;;;;;13.93;10.88;;;;;;;20.86;100.00;100571.41;5107611;28;20442;-30
2023/09/06 06:35:14;;;;;;;15.00;10.18;;;;;;;20.92;100.00;100568.66;5105752;28;20024;-29
2023/09/06 06:37:58;;;;;;;15.20;10.55;;;;;;;21.01;100.00;100572.44;5023448;28;20451;-29
2023/09/06 06:40:24;;;;;;;14.23;9.90;;;;;;;20.93;100.00;100570.28;5107435;28;20040;-31
2023/09/06 06:42:57;;;;;;;11.07;9.85;;;;;;;21.14;98.67;100574.56;5105653;28;20078;-31
2023/09/06 06:45:23;;;;;;;15.80;10.68;;;;;;;21.19;98.89;100579.97;5107428;28;20634;-29
2023/09/06 06:48:18;;;;;;;11.77;10.32;;;;;;;21.23;99.64;100575.63;5107568;28;20561;-32
2023/09/06 06:50:43;;;;;;;13.38;10.73;;;;;;;21.22;98.12;100584.03;5099992;28;20051;-29
2023/09/06 06:53:20;;;;;;;16.00;10.30;;;;;;;21.31;97.24;100576.09;5107309;28;20035;-29
2023/09/06 06:55:46;;;;;;;11.65;10.00;;;;;;;21.34;96.09;100583.72;5107259;28;20055;-29
2023/09/06 06:58:11;;;;;;;16.38;10.43;;;;;;;21.36;95.64;100584.25;5106921;28;20016;-31
2023/09/06 07:00:39;;;;;;;15.43;10.27;;;;;;;21.35;95.16;100588.88;5107170;28;20416;-27
2023/09/06 07:03:08;;;;;;;13.63;10.77;;;;;;;21.40;95.45;100577.16;5106685;28;20038;-30
2023/09/06 07:05:34;;;;;;;26.35;10.48;;;;;;;21.56;94.46;100584.16;5103680;28;20028;-29
2023/09/06 07:08:00;;;;;;;18.70;11.25;;;;;;;21.50;96.47;100590.72;5107031;28;20027;-29
2023/09/06 07:10:26;;;;;;;21.70;10.48;;;;;;;21.58;95.39;100579.28;5106304;28;20126;-29
2023/09/06 07:13:09;;;;;;;17.15;10.82;;;;;;;21.75;95.06;100575.38;5106210;28;20522;-29
2023/09/06 07:15:44;;;;;;;14.90;11.48;;;;;;;21.62;95.48;100572.19;5103209;28;20039;-29
2023/09/06 07:18:11;;;;;;;17.02;11.43;;;;;;;21.80;94.39;100567.19;5105530;27;20028;-30
2023/09/06 07:20:54;;;;;;;19.75;10.75;;;;;;;21.97;94.50;100573.06;5106402;28;20028;-28
2023/09/06 07:23:48;;;;;;;13.68;10.93;;;;;;;22.04;94.69;100576.25;5103550;28;20099;-29
2023/09/06 07:26:13;;;;;;;13.55;9.73;;;;;;;22.21;89.16;100561.44;5105167;28;20428;-29
2023/09/06 07:28:48;;;;;;;16.08;10.50;;;;;;;22.08;91.23;100580.03;5105996;28;20476;-30
2023/09/06 07:31:14;;;;;;;12.27;9.82;;;;;;;22.22;91.64;100573.94;5105520;28;20452;-30
2023/09/06 07:33:51;;;;;;;14.32;11.13;;;;;;;22.19;90.08;100569.06;5105390;28;20515;-29
2023/09/06 07:36:18;;;;;;;12.45;10.05;;;;;;;22.25;90.88;100566.09;5103569;28;20066;-29
2023/09/06 07:39:04;;;;;;;11.15;9.32;;;;;;;22.33;89.38;100564.66;5106148;28;20023;-32
2023/09/06 07:41:41;;;;;;;16.48;9.45;;;;;;;22.24;91.90;100564.44;5104342;28;21408;-30
2023/09/06 07:44:29;;;;;;;14.93;9.57;;;;;;;22.42;89.54;100568.38;5104854;28;20053;-29
2023/09/06 07:46:55;;;;;;;;;;;;;;;22.51;89.11;100570.47;5106520;28;20111;-29
2023/09/06 07:49:43;;;;;;;11.20;8.93;;;;;;;22.54;88.65;100567.19;5106319;28;20006;-29
2023/09/06 07:52:08;;;;;;;13.52;9.55;;;;;;;22.65;90.11;100569.50;5103357;28;20040;-31
2023/09/06 07:55:07;;;;;;;14.43;10.00;;;;;;;22.72;90.04;100582.78;5104570;28;20042;-29
2023/09/06 07:57:33;;;;;;;11.27;9.68;;;;;;;22.80;87.94;100575.88;5051788;28;20070;-31
2023/09/06 07:59:58;;;;;;;12.68;9.90;;;;;;;22.87;87.57;100581.78;5106112;28;20091;-29
2023/09/06 08:02:48;;;;;;;11.60;9.82;;;;;;;23.08;86.68;100574.25;5105953;28;20023;-29
2023/09/06 08:05:16;;;;;;;15.60;9.65;;;;;;;23.04;85.74;100575.91;5105743;28;20096;-30
2023/09/06 08:07:51;;;;;;;11.82;9.00;;;;;;;23.02;83.04;100578.13;5105881;28;20023;-29
2023/09/06 08:10:16;;;;;;;12.05;8.13;;;;;;;23.14;81.70;100578.53;5105935;28;20504;-29
2023/09/06 08:13:05;;;;;;;12.13;8.13;;;;;;;22.99;82.98;100584.13;5105977;28;20032;-29
2023/09/06 08:15:53;;;;;;;14.32;8.27;;;;;;;23.02;82.67;100580.84;5085532;28;20093;-28
2023/09/06 08:18:19;;;;;;;9.65;7.05;;;;;;;23.03;81.95;100582.47;5085328;28;20063;-29
2023/09/06 08:20:59;;;;;;;12.65;7.80;;;;;;;22.95;80.66;100578.44;5105942;28;20464;-31
2023/09/06 08:23:24;;;;;;;12.50;7.63;;;;;;;23.00;80.52;100570.22;5105800;28;20055;-33
2023/09/06 08:25:59;;;;;;;12.05;8.15;;;;;;;23.09;81.05;100578.59;5105300;28;20053;-31
2023/09/06 08:28:24;;;;;;;10.70;8.20;;;;;;;23.16;81.59;100570.88;5105660;28;20028;-31
2023/09/06 08:31:01;;;;;;;11.80;7.60;;;;;;;23.51;79.27;100570.72;5105575;28;20439;-31
2023/09/06 08:33:56;;;;;;;10.27;7.75;;;;;;;23.64;79.22;100568.06;5105473;28;20019;-31
2023/09/06 08:36:22;;;;;;;11.43;7.03;;;;;;;23.67;79.25;100559.31;5105420;28;20583;-31
2023/09/06 08:39:03;;;;;;;14.55;7.65;;;;;;;23.92;76.26;100581.03;5105146;28;20042;-32
2023/09/06 08:41:31;;;;;;;12.05;7.40;;;;;;;23.94;75.90;100567.94;5105577;28;20034;-36
2023/09/06 08:44:06;;;;;;;11.70;8.32;;;;;;;23.91;76.08;100569.34;5105287;28;20032;-32
2023/09/06 08:47:11;;;;;;;11.13;7.13;;;;;;;24.01;73.94;100573.84;5105636;28;20115;-34
2023/09/06 08:50:13;;;;;;;10.57;7.07;;;;;;;23.94;74.33;100585.09;5102669;28;20051;-31
2023/09/06 08:53:10;;;;;;;9.27;7.13;;;;;;;23.84;75.62;100586.06;5105436;28;20535;-33
2023/09/06 08:55:35;;;;;;;9.88;7.18;;;;;;;23.87;74.08;100587.38;5104224;28;20044;-31
2023/09/06 08:58:03;;;;;;;10.82;6.80;;;;;;;23.93;71.22;100572.59;5105427;28;20035;-33
2023/09/06 09:00:30;;;;;;;12.98;7.40;;;;;;;24.09;73.71;100580.50;5105428;28;20028;-31
2023/09/06 09:03:12;;;;;;;10.07;7.18;;;;;;;24.20;72.21;100581.97;5105265;28;20032;-31
2023/09/06 09:05:38;;;;;;;12.85;6.65;;;;;;;24.29;70.69;100582.88;5105789;28;20027;-31
2023/09/06 09:08:16;;;;;;;10.32;6.40;;;;;;;24.58;68.61;100584.59;5109206;28;20024;-32
2023/09/06 09:11:18;;;;;;;9.32;6.38;;;;;;;24.59;66.68;100587.03;5109264;28;20082;-31
2023/09/06 09:13:45;;;;;;;6.93;5.53;;;;;;;24.80;63.80;100594.84;5107580;28;20035;-32
2023/09/06 09:16:32;;;;;;;8.18;5.95;;;;;;;25.02;61.54;100597.69;5109351;28;20053;-32
2023/09/06 09:18:57;;;;;;;8.63;6.32;;;;;;;25.06;62.76;100592.44;5109488;28;20027;-33
2023/09/06 09:21:43;;;;;;;8.52;5.80;;;;;;;25.40;59.85;100593.97;5108861;28;20435;-32
2023/09/06 09:24:36;;;;;;;10.63;6.07;;;;;;;25.52;58.64;100594.25;5108414;28;20520;-31
2023/09/06 09:27:03;;;;;;;8.00;5.50;;;;;;;25.55;59.63;100590.91;5109010;28;20024;-33
2023/09/06 09:29:38;;;;;;;11.00;6.85;;;;;;;25.73;64.82;100589.16;5109088;28;20027;-29
2023/09/06 09:32:04;;;;;;;11.68;7.20;;;;;;;26.09;62.79;100601.19;5108905;28;20035;-29
2023/09/06 09:34:30;;;;;;;10.27;6.63;;;;;;;26.41;61.96;100586.44;5109137;27;20073;-31
2023/09/06 09:37:22;;;;;;;13.60;7.30;;;;;;;27.02;59.26;100579.34;5109122;28;20024;-30
2023/09/06 09:39:47;;;;;;;9.98;6.28;;;;;;;27.47;56.11;100592.06;5104297;27;20812;-29
2023/09/06 09:42:47;;;;;;;9.25;6.40;;;;;;;26.78;57.29;100584.41;5108923;27;20032;-30
2023/09/06 09:45:45;;;;;;;13.77;7.20;;;;;;;26.76;58.07;100583.91;5101813;28;20038;-29
2023/09/06 09:48:49;;;;;;;10.30;6.00;;;;;;;27.00;56.71;100576.13;5105971;28;20096;-30
2023/09/06 09:51:16;;;;;;;10.23;6.35;;;;;;;27.43;56.07;100582.88;5065104;28;20167;-29
2023/09/06 09:53:47;;;;;;;11.27;6.93;;;;;;;27.67;53.16;100589.84;5065157;28;20025;-29
2023/09/06 09:56:14;;;;;;;10.52;6.15;;;;;;;28.12;54.44;100575.81;5086929;28;20121;-29
2023/09/06 09:58:40;;;;;;;9.40;6.68;;;;;;;28.40;49.25;100582.53;5108438;28;20035;-31
2023/09/06 10:01:08;;;;;;;9.30;6.82;;;;;;;28.25;49.89;100581.09;5108214;28;20039;-30
2023/09/06 10:03:55;;;;;;;11.73;6.60;;;;;;;28.01;52.93;100576.16;5108422;28;20074;-31
2023/09/06 10:06:47;;;;;;;11.73;6.65;;;;;;;28.20;52.08;100572.25;5108057;28;20027;-31
2023/09/06 10:09:15;;;;;;;11.82;7.43;;;;;;;28.42;49.63;100569.31;5102632;28;20040;-31
2023/09/06 10:11:51;;;;;;;10.10;6.20;;;;;;;27.88;50.29;100560.69;5108659;28;20032;-29
2023/09/06 10:14:25;;;;;;;9.57;6.63;;;;;;;27.98;51.38;100567.75;5108113;28;20035;-29
2023/09/06 10:16:53;;;;;;;12.73;7.15;;;;;;;28.21;49.35;100562.88;5107770;28;20076;-28
2023/09/06 10:22:08;;;;;;;10.40;6.65;;;;;;;28.39;50.56;100558.16;5105264;28;20625;-31
2023/09/06 10:24:52;;;;;;;12.48;7.00;;;;;;;28.88;48.89;100549.63;5108439;28;20019;-31
2023/09/06 10:27:18;;;;;;;10.07;6.50;;;;;;;28.72;46.05;100555.66;5107522;27;20077;-32
2023/09/06 10:29:56;;;;;;;9.80;6.40;;;;;;;29.27;48.23;100553.13;5107931;28;20055;-32
2023/09/06 10:32:22;;;;;;;10.02;6.72;;;;;;;29.41;47.79;100556.44;5107957;28;20106;-35
2023/09/06 10:35:20;;;;;;;12.18;6.85;;;;;;;29.34;46.66;100565.22;5107886;28;20118;-32
2023/09/06 10:38:26;;;;;;;9.60;6.70;;;;;;;29.80;46.37;100551.63;5107520;28;20031;-33
2023/09/06 10:40:57;;;;;;;12.23;7.00;;;;;;;29.25;45.69;100556.22;5064130;28;20086;-34
2023/09/06 10:44:07;;;;;;;10.95;7.18;;;;;;;29.79;45.39;100548.06;5064141;28;20165;-33
2023/09/06 10:47:14;;;;;;;9.40;6.93;;;;;;;30.09;45.07;100545.19;5099800;28;20040;-32
2023/09/06 10:50:09;;;;;;;9.20;6.90;;;;;;;30.40;44.28;100546.66;5106861;28;20433;-33
2023/09/06 10:53:19;;;;;;;10.15;6.60;;;;;;;29.77;44.90;100544.03;5103762;28;20668;-35
2023/09/06 10:56:05;;;;;;;9.98;6.95;;;;;;;29.63;44.15;100549.81;5063475;28;20085;-32
2023/09/06 10:59:08;;;;;;;11.65;6.93;;;;;;;29.17;45.72;100533.16;5064226;28;20041;-32
2023/09/06 11:01:33;;;;;;;12.65;7.10;;;;;;;29.05;46.55;100525.63;5099734;28;20214;-32
2023/09/06 11:04:12;;;;;;;10.65;7.13;;;;;;;28.78;45.17;100515.91;5107419;28;20055;-31
2023/09/06 11:07:13;;;;;;;9.10;7.05;;;;;;;28.61;46.08;100516.00;5107487;28;20028;-31
2023/09/06 11:10:09;;;;;;;15.40;7.75;;;;;;;28.23;48.17;100516.75;5063695;28;20037;-33
2023/09/06 11:12:35;;;;;;;10.13;7.40;;;;;;;28.03;49.51;100510.00;5103503;28;20036;-34
2023/09/06 11:15:24;;;;;;;10.95;7.57;;;;;;;27.59;50.25;100515.53;5107151;28;20027;-35
2023/09/06 11:18:13;;;;;;;11.90;7.07;;;;;;;27.64;51.74;100504.41;5107745;28;20046;-31
2023/09/06 11:21:17;;;;;;;10.65;8.05;;;;;;;27.41;53.42;100497.47;5106301;28;20071;-31
2023/09/06 11:24:21;;;;;;;11.50;7.63;;;;;;;27.15;52.92;100500.97;5107036;28;20042;-32
2023/09/06 11:26:46;;;;;;;11.35;8.82;;;;;;;27.10;55.08;100487.44;5106080;28;20090;-31
2023/09/06 11:29:14;;;;;;;16.40;10.63;;;;;;;27.11;54.65;100497.25;5106068;27;20466;-31
2023/09/06 11:32:11;;;;;;;13.93;8.85;;;;;;;27.05;56.53;100493.06;5106870;28;20034;-33
2023/09/06 11:34:46;;;;;;;;;;;;;;;26.84;54.10;100490.91;5063752;28;20049;-32
2023/09/06 11:37:21;;;;;;;12.82;8.23;;;;;;;26.83;54.64;100489.31;5063176;28;19916;-32
2023/09/06 11:39:47;;;;;;;13.15;8.20;;;;;;;26.83;55.29;100477.56;5103982;28;20077;-32
2023/09/06 11:42:27;;;;;;;10.57;8.02;;;;;;;26.97;55.13;100485.63;5106825;27;20031;-31
2023/09/06 11:45:22;;;;;;;12.07;8.48;;;;;;;27.06;55.01;100475.50;5106440;28;20024;-32